Amstetten, Austria

2:52 PM CET on November 27, 2014 (GMT +0100)
Wallsee an der Donau | Change Station
CLOSE
Current Station
Personal Weather Station
Location: Wallsee, NIEDERöSTERREICH
Elevation: 902 ft
Nearby Weather Stations

Elev 902 ft 48.16 °N, 14.72 °E | Updated 25 seconds ago

Partly Cloudy
Partly Cloudy
40.6 °F
Feels Like 36 °F
N
6.0
Wind Variable Wind from ESE
Gusts 7.4 mph

Today
High -- | Low -- °F
--% Chance of Precip.
Yesterday
High -- | Low -- °F
Precip. -- in
7:24 AM 4:11 PM
Waxing Crescent, 29% visible
Pressure 29.86 in
Visibility 6.2 miles
Clouds Few 2000 ft
Windchill 36 °F
Dew Point 31 °F
Humidity 69%
Rainfall 0.00 in
Snow Depth Not available.
UV 1.0 out of 12
Pollen Not available.
Air Quality Not available.
Flu Activity Not available.
METAR LOWL 271320Z 10009KT 9999 FEW020 05/M00 Q1011 NOSIG

More Conditions Fewer Conditions

Pressure 29.86 in
Visibility 6.2 miles
Clouds Few 2000 ft
Windchill 36 °F
Dew Point 31 °F
Humidity 69%
Rainfall 0.00 in
Snow Depth Not available.
UV 1.0 out of 12
Pollen Not available.
Air Quality Not available.
Flu Activity Not available.
METAR LOWL 271320Z 10009KT 9999 FEW020 05/M00 Q1011 NOSIG

More Conditions Fewer Conditions

10-Day Weather Forecast

Almanac

Astronomy

Nov. 27, 2014 Rise Set
Actual Time
Civil Twilight
Nautical Twilight
Astronomical Twilight
Moon
Length of Visible Light
Length of Day
Tomorrow will be .
, % of the Moon is Illuminated

Today's Extremes

Country Highs Country Lows

Community

WunderPhotos

Upload Photos

1,774,003 photos uploaded!

WunderBlogs® & News

Nearby

Air Quality

  Air Quality AQ Index Pollutant
Not available.

Snow Depth

Station Depth Elevation

Earthquake Activity

City Distance Mag. Time & Date
Minimum magnitude displayed is 2.5.

Coastal Water Temperatures

Place Temperature

Nearby Weather Stations